Terminal Aerodrome Forecast
Issued by NWS Tampa Bay Area, FL

Home | Current Version | Previous Version | Text Only | Print | Product List | Glossary On
Versions: 1 2 3 4 5 6 7 8 9 10 11 12 13 14 15 16 17 18 19 20 21 22 23 24 25 26
000
FTUS42 KTBW 012338
TAFTPA
TAF
KTPA 012338Z 0200/0224 27009KT P6SM FEW200
     FM020200 VRB04KT P6SM FEW200
     FM021500 14005KT P6SM SCT035
     FM021800 26008KT P6SM FEW040 SCT250=

USA.gov is the U.S. government's official web portal to all federal, state and local government web resources and services.